Site contains unofficial IBTrACS data. Visit the IBTrACS Website to access archived data.

1929 NOT_NAMED (1929020N07139)


IBTrACS version v04r00. Visit IBTrACS website for data access.
Please direct all questions to the IBTrACS Q and A forum

Storm track - Intensity - Wind Radii - Intensity Data - Source Data - All data

Summary Information

Storm ID 1929020N07139
Start Jan 19 22Z
Landfall Jan 23 10Z, Jan 24 03Z, Jan 24 21Z, Jan 28 15Z
End Jan 28 22Z
ATCF IDs
Track status Best track data.

Storm track plot

Map of storm track

Intensity plots

No Intensity information for this storm


Radial wind information

No radial wind information for this storm


Position and Intensity Table

BASIN ISO_TIME_________ NATURE LAT LON
degrees north degrees east
WP 1929-01-19 22:00:00 NR 6.70 138.90
WP 1929-01-20 00:00:00 NR 6.70 138.68
WP 03:00:00 NR 6.71 138.34
WP 06:00:00 NR 6.74 138.02
WP 09:00:00 NR 6.78 137.70
WP 10:00:00 NR 6.80 137.60
WP 12:00:00 NR 6.85 137.40
WP 15:00:00 NR 6.94 137.10
WP 18:00:00 NR 7.05 136.78
WP 21:00:00 NR 7.16 136.43
WP 22:00:00 NR 7.20 136.30
WP 1929-01-21 00:00:00 NR 7.26 136.02
WP 03:00:00 NR 7.36 135.56
WP 06:00:00 NR 7.46 135.07
WP 09:00:00 NR 7.56 134.57
WP 10:00:00 NR 7.60 134.40
WP 12:00:00 NR 7.68 134.07
WP 15:00:00 NR 7.81 133.57
WP 18:00:00 NR 7.94 133.06
WP 21:00:00 NR 8.06 132.56
WP 22:00:00 NR 8.10 132.40
WP 1929-01-22 00:00:00 NR 8.17 132.08
WP 03:00:00 NR 8.28 131.61
WP 06:00:00 NR 8.38 131.14
WP 09:00:00 NR 8.47 130.66
WP 10:00:00 NR 8.50 130.50
WP 12:00:00 NR 8.55 130.17
WP 15:00:00 NR 8.63 129.65
WP 18:00:00 NR 8.70 129.13
WP 21:00:00 NR 8.77 128.58
WP 22:00:00 NR 8.80 128.40
WP 1929-01-23 00:00:00 NR 8.86 128.02
WP 03:00:00 NR 8.97 127.44
WP 06:00:00 NR 9.07 126.86
WP 09:00:00 NR 9.17 126.29
WP 10:00:00 NR 9.20 126.10
WP 12:00:00 NR 9.26 125.75
WP 15:00:00 NR 9.34 125.23
WP 18:00:00 NR 9.41 124.71
WP 21:00:00 NR 9.48 124.18
WP 22:00:00 NR 9.50 124.00
WP 1929-01-24 00:00:00 NR 9.53 123.62
WP 03:00:00 NR 9.58 123.04
WP 06:00:00 NR 9.62 122.44
WP 09:00:00 NR 9.68 121.81
WP 10:00:00 NR 9.70 121.60
WP 12:00:00 NR 9.76 121.13
WP 15:00:00 NR 9.86 120.41
WP 18:00:00 NR 9.96 119.71
WP 21:00:00 NR 10.07 119.08
WP 22:00:00 NR 10.10 118.90
WP 1929-01-25 00:00:00 NR 10.15 118.61
WP 03:00:00 NR 10.23 118.27
WP 06:00:00 NR 10.30 117.99
WP 09:00:00 NR 10.37 117.70
WP 10:00:00 NR 10.40 117.60
WP 12:00:00 NR 10.43 117.34
WP 15:00:00 NR 10.49 116.92
WP 18:00:00 NR 10.58 116.48
WP 21:00:00 NR 10.73 116.04
WP 22:00:00 NR 10.80 115.90
WP 1929-01-26 00:00:00 NR 10.97 115.63
WP 03:00:00 NR 11.28 115.23
WP 06:00:00 NR 11.66 114.84
WP 09:00:00 NR 12.06 114.44
WP 10:00:00 NR 12.20 114.30
WP 12:00:00 NR 12.48 114.00
WP 15:00:00 NR 12.92 113.55
WP 18:00:00 NR 13.36 113.12
WP 21:00:00 NR 13.77 112.72
WP 22:00:00 NR 13.90 112.60
WP 1929-01-27 00:00:00 NR 14.12 112.39
WP 03:00:00 NR 14.43 112.13
WP 06:00:00 NR 14.71 111.89
WP 09:00:00 NR 15.00 111.67
WP 10:00:00 NR 15.10 111.60
WP 12:00:00 NR 15.32 111.43
WP 15:00:00 NR 15.67 111.18
WP 18:00:00 NR 16.02 110.93
WP 21:00:00 NR 16.38 110.68
WP 22:00:00 NR 16.50 110.60
WP 1929-01-28 00:00:00 NR 16.73 110.43
WP 03:00:00 NR 17.07 110.18
WP 06:00:00 NR 17.42 109.93
WP 09:00:00 NR 17.78 109.68
WP 10:00:00 NR 17.90 109.60
WP 12:00:00 NR 18.15 109.43
WP 15:00:00 NR 18.55 109.18
WP 18:00:00 NR 18.95 108.93
WP 21:00:00 NR 19.36 108.68
WP 22:00:00 NR 19.50 108.60

Source Information

Agency Information
USA
TOKYO
CMA
HKO
NEWDELHI
REUNION
BOM
NADI
WELLINGTON
DS824
TD9636 cons_worldwide_trop_cyclone_18710101-19891231-003:Line=8249
TD9635
NEUMANN
MLC

All available IBTrACS Data

SEASON BASIN SUBBASIN ISO_TIME_________ NATURE LAT LON DIST2LAND LANDFALL IFLAG USA SSHS TD9636 LAT TD9636 LON TD9636 STAGE STORM SPEED STORM DIR
Year degrees north degrees east km km 1 degrees north degrees east kts degrees
1929 WP MM 1929-01-19 22:00:00 NR 6.70 138.90 904 896 __________O___ -1 6.70 138.90 2 7 271
1929 WP MM 1929-01-20 00:00:00 NR 6.70 138.68 896 881 __________P___ -1 6.70 138.68 2 7 271
1929 WP MM 03:00:00 NR 6.71 138.34 881 871 __________P___ -1 6.71 138.34 2 7 273
1929 WP MM 06:00:00 NR 6.74 138.02 871 867 __________P___ -1 6.74 138.02 2 6 276
1929 WP MM 09:00:00 NR 6.78 137.70 872 869 __________P___ -1 6.78 137.70 2 6 279
1929 WP MM 10:00:00 NR 6.80 137.60 869 863 __________O___ -1 6.80 137.60 2 6 283
1929 WP MM 12:00:00 NR 6.85 137.40 863 867 __________P___ -1 6.85 137.40 2 6 286
1929 WP MM 15:00:00 NR 6.94 137.10 867 867 __________P___ -1 6.94 137.10 2 6 288
1929 WP MM 18:00:00 NR 7.05 136.78 884 879 __________P___ -1 7.05 136.78 2 7 288
1929 WP MM 21:00:00 NR 7.16 136.43 889 888 __________P___ -1 7.16 136.43 2 8 287
1929 WP MM 22:00:00 NR 7.20 136.30 888 887 __________O___ -1 7.20 136.30 2 8 284
1929 WP MM 1929-01-21 00:00:00 NR 7.26 136.02 897 896 __________P___ -1 7.26 136.02 2 9 282
1929 WP MM 03:00:00 NR 7.36 135.56 907 897 __________P___ -1 7.36 135.56 2 10 282
1929 WP MM 06:00:00 NR 7.46 135.07 903 868 __________P___ -1 7.46 135.07 2 10 282
1929 WP MM 09:00:00 NR 7.56 134.57 868 851 __________P___ -1 7.56 134.57 2 10 282
1929 WP MM 10:00:00 NR 7.60 134.40 851 827 __________O___ -1 7.60 134.40 2 10 283
1929 WP MM 12:00:00 NR 7.68 134.07 827 772 __________P___ -1 7.68 134.07 2 10 284
1929 WP MM 15:00:00 NR 7.81 133.57 772 717 __________P___ -1 7.81 133.57 2 10 284
1929 WP MM 18:00:00 NR 7.94 133.06 717 662 __________P___ -1 7.94 133.06 2 10 284
1929 WP MM 21:00:00 NR 8.06 132.56 662 640 __________P___ -1 8.06 132.56 2 10 284
1929 WP MM 22:00:00 NR 8.10 132.40 640 608 __________O___ -1 8.10 132.40 2 10 284
1929 WP MM 1929-01-22 00:00:00 NR 8.17 132.08 608 555 __________P___ -1 8.17 132.08 2 10 283
1929 WP MM 03:00:00 NR 8.28 131.61 555 502 __________P___ -1 8.28 131.61 2 10 282
1929 WP MM 06:00:00 NR 8.38 131.14 502 460 __________P___ -1 8.38 131.14 2 10 281
1929 WP MM 09:00:00 NR 8.47 130.66 460 438 __________P___ -1 8.47 130.66 2 10 281
1929 WP MM 10:00:00 NR 8.50 130.50 438 406 __________O___ -1 8.50 130.50 2 10 279
1929 WP MM 12:00:00 NR 8.55 130.17 409 356 __________P___ -1 8.55 130.17 2 10 279
1929 WP MM 15:00:00 NR 8.63 129.65 356 297 __________P___ -1 8.63 129.65 2 10 278
1929 WP MM 18:00:00 NR 8.70 129.13 297 248 __________P___ -1 8.70 129.13 2 11 278
1929 WP MM 21:00:00 NR 8.77 128.58 248 227 __________P___ -1 8.77 128.58 2 11 278
1929 WP MM 22:00:00 NR 8.80 128.40 227 187 __________O___ -1 8.80 128.40 4 11 279
1929 WP MM 1929-01-23 00:00:00 NR 8.86 128.02 187 123 __________P___ -1 8.86 128.02 4 12 280
1929 WP MM 03:00:00 NR 8.97 127.44 123 74 __________P___ -1 8.97 127.44 4 12 280
1929 WP MM 06:00:00 NR 9.07 126.86 74 10 __________P___ -1 9.07 126.86 4 12 280
1929 WP MM 09:00:00 NR 9.17 126.29 10 0 __________P___ -1 9.17 126.29 4 11 280
1929 WP MM 10:00:00 NR 9.20 126.10 0 0 __________O___ -1 9.20 126.10 4 11 279
1929 WP MM 12:00:00 NR 9.26 125.75 0 0 __________P___ -1 9.26 125.75 4 10 279
1929 WP MM 15:00:00 NR 9.34 125.23 32 32 __________P___ -1 9.34 125.23 4 10 279
1929 WP MM 18:00:00 NR 9.41 124.71 35 11 __________P___ -1 9.41 124.71 4 10 278
1929 WP MM 21:00:00 NR 9.48 124.18 11 11 __________P___ -1 9.48 124.18 4 11 277
1929 WP MM 22:00:00 NR 9.50 124.00 11 11 __________O___ -1 9.50 124.00 4 11 276
1929 WP MM 1929-01-24 00:00:00 NR 9.53 123.62 15 0 __________P___ -1 9.53 123.62 4 11 275
1929 WP MM 03:00:00 NR 9.58 123.04 0 0 __________P___ -1 9.58 123.04 4 12 274
1929 WP MM 06:00:00 NR 9.62 122.44 10 10 __________P___ -1 9.62 122.44 4 12 275
1929 WP MM 09:00:00 NR 9.68 121.81 66 66 __________P___ -1 9.68 121.81 4 12 275
1929 WP MM 10:00:00 NR 9.70 121.60 85 85 __________O___ -1 9.70 121.60 4 14 277
1929 WP MM 12:00:00 NR 9.76 121.13 110 101 __________P___ -1 9.76 121.13 4 14 278
1929 WP MM 15:00:00 NR 9.86 120.41 101 46 __________P___ -1 9.86 120.41 4 14 278
1929 WP MM 18:00:00 NR 9.96 119.71 46 0 __________P___ -1 9.96 119.71 4 13 279
1929 WP MM 21:00:00 NR 10.07 119.08 0 0 __________P___ -1 10.07 119.08 4 12 280
1929 WP MM 22:00:00 NR 10.10 118.90 0 0 __________O___ -1 10.10 118.90 1 9 280
1929 WP MM 1929-01-25 00:00:00 NR 10.15 118.61 24 24 __________P___ -1 10.15 118.61 1 8 281
1929 WP MM 03:00:00 NR 10.23 118.27 55 55 __________P___ -1 10.23 118.27 1 6 283
1929 WP MM 06:00:00 NR 10.30 117.99 86 86 __________P___ -1 10.30 117.99 1 6 285
1929 WP MM 09:00:00 NR 10.37 117.70 117 117 __________P___ -1 10.37 117.70 1 6 285
1929 WP MM 10:00:00 NR 10.40 117.60 125 125 __________O___ -1 10.40 117.60 4 7 280
1929 WP MM 12:00:00 NR 10.43 117.34 145 145 __________P___ -1 10.43 117.34 4 8 278
1929 WP MM 15:00:00 NR 10.49 116.92 175 175 __________P___ -1 10.49 116.92 4 9 280
1929 WP MM 18:00:00 NR 10.58 116.48 211 211 __________P___ -1 10.58 116.48 4 9 286
1929 WP MM 21:00:00 NR 10.73 116.04 258 258 __________P___ -1 10.73 116.04 4 9 291
1929 WP MM 22:00:00 NR 10.80 115.90 274 274 __________O___ -1 10.80 115.90 4 9 300
1929 WP MM 1929-01-26 00:00:00 NR 10.97 115.63 313 313 __________P___ -1 10.97 115.63 4 10 306
1929 WP MM 03:00:00 NR 11.28 115.23 368 368 __________P___ -1 11.28 115.23 4 10 311
1929 WP MM 06:00:00 NR 11.66 114.84 430 430 __________P___ -1 11.66 114.84 4 11 315
1929 WP MM 09:00:00 NR 12.06 114.44 493 493 __________P___ -1 12.06 114.44 4 11 316
1929 WP MM 10:00:00 NR 12.20 114.30 508 488 __________O___ -1 12.20 114.30 4 12 315
1929 WP MM 12:00:00 NR 12.48 114.00 488 444 __________P___ -1 12.48 114.00 4 12 315
1929 WP MM 15:00:00 NR 12.92 113.55 444 392 __________P___ -1 12.92 113.55 4 12 315
1929 WP MM 18:00:00 NR 13.36 113.12 394 357 __________P___ -1 13.36 113.12 4 12 316
1929 WP MM 21:00:00 NR 13.77 112.72 360 353 __________P___ -1 13.77 112.72 4 11 317
1929 WP MM 22:00:00 NR 13.90 112.60 353 335 __________O___ -1 13.90 112.60 4 10 318
1929 WP MM 1929-01-27 00:00:00 NR 14.12 112.39 335 307 __________P___ -1 14.12 112.39 4 8 319
1929 WP MM 03:00:00 NR 14.43 112.13 307 291 __________P___ -1 14.43 112.13 4 8 321
1929 WP MM 06:00:00 NR 14.71 111.89 294 280 __________P___ -1 14.71 111.89 4 7 323
1929 WP MM 09:00:00 NR 15.00 111.67 281 270 __________P___ -1 15.00 111.67 4 7 324
1929 WP MM 10:00:00 NR 15.10 111.60 272 256 __________O___ -1 15.10 111.60 4 8 324
1929 WP MM 12:00:00 NR 15.32 111.43 256 246 __________P___ -1 15.32 111.43 4 8 325
1929 WP MM 15:00:00 NR 15.67 111.18 251 232 __________P___ -1 15.67 111.18 4 9 326
1929 WP MM 18:00:00 NR 16.02 110.93 232 227 __________P___ -1 16.02 110.93 4 9 326
1929 WP MM 21:00:00 NR 16.38 110.68 227 212 __________P___ -1 16.38 110.68 4 9 326
1929 WP MM 22:00:00 NR 16.50 110.60 212 183 __________O___ -1 16.50 110.60 4 8 325
1929 WP MM 1929-01-28 00:00:00 NR 16.73 110.43 183 134 __________P___ -1 16.73 110.43 4 8 325
1929 WP MM 03:00:00 NR 17.07 110.18 134 91 __________P___ -1 17.07 110.18 4 8 325
1929 WP MM 06:00:00 NR 17.42 109.93 91 44 __________P___ -1 17.42 109.93 4 9 326
1929 WP MM 09:00:00 NR 17.78 109.68 44 33 __________P___ -1 17.78 109.68 4 9 327
1929 WP MM 10:00:00 NR 17.90 109.60 33 10 __________O___ -1 17.90 109.60 4 9 328
1929 WP MM 12:00:00 NR 18.15 109.43 10 0 __________P___ -1 18.15 109.43 4 9 329
1929 WP MM 15:00:00 NR 18.55 109.18 0 0 __________P___ -1 18.55 109.18 4 9 329
1929 WP MM 18:00:00 NR 18.95 108.93 0 0 __________P___ -1 18.95 108.93 4 9 330
1929 WP MM 21:00:00 NR 19.36 108.68 0 0 __________P___ -1 19.36 108.68 4 10 330
1929 WP MM 22:00:00 NR 19.50 108.60 15 __________O___ -1 19.50 108.60 4 10 330